New Smyrna Beach, Florida
Current Conditions -  °F | °C
As of 4:47 PM on Wednesday 26 Nov 2014 (Local Time) from KEVB Reporting Station
Clear Clear  
Wind Chill: 59°   Ceiling: Unl
Heat Index: 59°   Visibility: 10mi
Dew Point: 48°   Wind: 9mph
Humidity: 67%   Direction: 280°W
Pressure: 30.16"   Gusts: NA
Location:  29.03°N, 80.92°W
Report Text: KEVB 262147Z 28008KT 10SM SCT20 15/09 A3016
Loading
Personal Weather Stations






























Interactive Weather Map New forecast layout! Learn more

10-Day Weather Forecast

Advertisements
Track Severe Weather on mobile